Messiah College, Pennsylvania
Current Conditions -  °F | °C
As of 2:56 PM on Thursday 27 Nov 2014 (Local Time) from KCXY Reporting Station
Broken Clouds Broken Clouds  
Wind Chill: 37°   Ceiling: 7000
Heat Index: 37°   Visibility: 10mi
Dew Point: 27°   Wind: 3mph
Humidity: 67%   Direction: 290°WNW
Pressure: 30.05"   Gusts: NA
Location:  40.1564°N, 76.9967°W
Report Text: KCXY 271956Z 29003KT 10SM FEW040 BKN070 03/M03 A3005 RMK AO2 SLP182 T00281028
Loading
Personal Weather Stations






























Interactive Weather Map New forecast layout! Learn more

10-Day Weather Forecast

Advertisements
Track Severe Weather on mobile